sensor_id;sensor_type;location;lat;lon;timestamp;temperature;humidity
18882;DHT22;9573;50.948;11.600;2022-09-09T00:02:15;13.00;99.90
18882;DHT22;9573;50.948;11.600;2022-09-09T00:04:51;13.00;99.90
18882;DHT22;9573;50.948;11.600;2022-09-09T00:07:37;13.00;99.90
18882;DHT22;9573;50.948;11.600;2022-09-09T00:10:16;13.00;99.90
18882;DHT22;9573;50.948;11.600;2022-09-09T00:12:54;13.00;99.90
18882;DHT22;9573;50.948;11.600;2022-09-09T00:15:29;12.90;99.90
18882;DHT22;9573;50.948;11.600;2022-09-09T00:18:07;12.90;99.90
18882;DHT22;9573;50.948;11.600;2022-09-09T00:20:45;12.90;99.90
18882;DHT22;9573;50.948;11.600;2022-09-09T00:23:22;12.90;99.90
18882;DHT22;9573;50.948;11.600;2022-09-09T00:25:58;12.90;99.90
18882;DHT22;9573;50.948;11.600;2022-09-09T00:28:38;12.90;99.90
18882;DHT22;9573;50.948;11.600;2022-09-09T00:31:12;12.90;99.90
18882;DHT22;9573;50.948;11.600;2022-09-09T00:33:40;12.90;99.90
18882;DHT22;9573;50.948;11.600;2022-09-09T00:36:13;12.90;99.90
18882;DHT22;9573;50.948;11.600;2022-09-09T00:38:45;12.90;99.90
18882;DHT22;9573;50.948;11.600;2022-09-09T00:41:20;12.90;99.90
18882;DHT22;9573;50.948;11.600;2022-09-09T00:43:56;12.90;99.90
18882;DHT22;9573;50.948;11.600;2022-09-09T00:46:41;12.90;99.90
18882;DHT22;9573;50.948;11.600;2022-09-09T00:49:24;12.90;99.90
18882;DHT22;9573;50.948;11.600;2022-09-09T00:52:06;12.90;99.90
18882;DHT22;9573;50.948;11.600;2022-09-09T00:54:47;12.90;99.90
18882;DHT22;9573;50.948;11.600;2022-09-09T00:57:25;12.90;99.90
18882;DHT22;9573;50.948;11.600;2022-09-09T01:00:14;12.90;99.90
18882;DHT22;9573;50.948;11.600;2022-09-09T01:02:56;12.80;99.90
18882;DHT22;9573;50.948;11.600;2022-09-09T01:05:37;12.90;99.90
18882;DHT22;9573;50.948;11.600;2022-09-09T01:08:14;12.90;99.90
18882;DHT22;9573;50.948;11.600;2022-09-09T01:10:50;12.90;99.90
18882;DHT22;9573;50.948;11.600;2022-09-09T01:13:22;12.90;99.90
18882;DHT22;9573;50.948;11.600;2022-09-09T01:15:53;12.80;99.90
18882;DHT22;9573;50.948;11.600;2022-09-09T01:18:23;12.80;99.90
18882;DHT22;9573;50.948;11.600;2022-09-09T01:20:59;12.80;99.90
18882;DHT22;9573;50.948;11.600;2022-09-09T01:23:51;12.80;99.90
18882;DHT22;9573;50.948;11.600;2022-09-09T01:26:30;12.80;99.90
18882;DHT22;9573;50.948;11.600;2022-09-09T01:28:59;12.70;99.90
18882;DHT22;9573;50.948;11.600;2022-09-09T01:31:29;12.70;99.90
18882;DHT22;9573;50.948;11.600;2022-09-09T01:33:58;12.70;99.90
18882;DHT22;9573;50.948;11.600;2022-09-09T01:36:31;12.60;99.90
18882;DHT22;9573;50.948;11.600;2022-09-09T01:39:02;12.60;99.90
18882;DHT22;9573;50.948;11.600;2022-09-09T01:41:31;12.60;99.90
18882;DHT22;9573;50.948;11.600;2022-09-09T01:43:58;12.60;99.90
18882;DHT22;9573;50.948;11.600;2022-09-09T01:46:25;12.60;99.90
18882;DHT22;9573;50.948;11.600;2022-09-09T01:48:55;12.60;99.90
18882;DHT22;9573;50.948;11.600;2022-09-09T01:51:22;12.60;99.90
18882;DHT22;9573;50.948;11.600;2022-09-09T01:53:50;12.50;99.90
18882;DHT22;9573;50.948;11.600;2022-09-09T01:56:23;12.50;99.90
18882;DHT22;9573;50.948;11.600;2022-09-09T01:59:06;12.50;99.90
18882;DHT22;9573;50.948;11.600;2022-09-09T02:01:48;12.50;99.90
18882;DHT22;9573;50.948;11.600;2022-09-09T02:04:32;12.50;99.90
18882;DHT22;9573;50.948;11.600;2022-09-09T02:07:08;12.50;99.90
18882;DHT22;9573;50.948;11.600;2022-09-09T02:09:42;12.40;99.90
18882;DHT22;9573;50.948;11.600;2022-09-09T02:12:14;12.40;99.90
18882;DHT22;9573;50.948;11.600;2022-09-09T02:14:49;12.40;99.90
18882;DHT22;9573;50.948;11.600;2022-09-09T02:17:22;12.40;99.90
18882;DHT22;9573;50.948;11.600;2022-09-09T02:19:56;12.40;99.90
18882;DHT22;9573;50.948;11.600;2022-09-09T02:22:33;12.40;99.90
18882;DHT22;9573;50.948;11.600;2022-09-09T02:25:03;12.50;99.90
18882;DHT22;9573;50.948;11.600;2022-09-09T02:27:32;12.50;99.90
18882;DHT22;9573;50.948;11.600;2022-09-09T02:30:01;12.50;99.90
18882;DHT22;9573;50.948;11.600;2022-09-09T02:32:32;12.50;99.90
18882;DHT22;9573;50.948;11.600;2022-09-09T02:35:05;12.50;99.90
18882;DHT22;9573;50.948;11.600;2022-09-09T02:37:38;12.50;99.90
18882;DHT22;9573;50.948;11.600;2022-09-09T02:40:10;12.50;99.90
18882;DHT22;9573;50.948;11.600;2022-09-09T02:42:39;12.50;99.90
18882;DHT22;9573;50.948;11.600;2022-09-09T02:45:10;12.50;99.90
18882;DHT22;9573;50.948;11.600;2022-09-09T02:47:41;12.50;99.90
18882;DHT22;9573;50.948;11.600;2022-09-09T02:50:13;12.40;99.90
18882;DHT22;9573;50.948;11.600;2022-09-09T02:52:50;12.40;99.90
18882;DHT22;9573;50.948;11.600;2022-09-09T02:55:32;12.40;99.90
18882;DHT22;9573;50.948;11.600;2022-09-09T02:58:04;12.40;99.90
18882;DHT22;9573;50.948;11.600;2022-09-09T03:00:34;12.40;99.90
18882;DHT22;9573;50.948;11.600;2022-09-09T03:03:03;12.40;99.90
18882;DHT22;9573;50.948;11.600;2022-09-09T03:05:30;12.30;99.90
18882;DHT22;9573;50.948;11.600;2022-09-09T03:07:58;12.40;99.90
18882;DHT22;9573;50.948;11.600;2022-09-09T03:10:25;12.30;99.90
18882;DHT22;9573;50.948;11.600;2022-09-09T03:12:52;12.30;99.90
18882;DHT22;9573;50.948;11.600;2022-09-09T03:15:21;12.30;99.90
18882;DHT22;9573;50.948;11.600;2022-09-09T03:17:49;12.30;99.90
18882;DHT22;9573;50.948;11.600;2022-09-09T03:20:16;12.40;99.90
18882;DHT22;9573;50.948;11.600;2022-09-09T03:22:44;12.30;99.90
18882;DHT22;9573;50.948;11.600;2022-09-09T03:25:11;12.30;99.90
18882;DHT22;9573;50.948;11.600;2022-09-09T03:27:38;12.40;99.90
18882;DHT22;9573;50.948;11.600;2022-09-09T03:30:06;12.40;99.90
18882;DHT22;9573;50.948;11.600;2022-09-09T03:32:34;12.40;99.90
18882;DHT22;9573;50.948;11.600;2022-09-09T03:35:02;12.40;99.90
18882;DHT22;9573;50.948;11.600;2022-09-09T03:37:30;12.50;99.90
18882;DHT22;9573;50.948;11.600;2022-09-09T03:39:57;12.50;99.90
18882;DHT22;9573;50.948;11.600;2022-09-09T03:42:25;12.60;99.90
18882;DHT22;9573;50.948;11.600;2022-09-09T03:44:52;12.80;99.90
18882;DHT22;9573;50.948;11.600;2022-09-09T03:47:21;13.00;99.90
18882;DHT22;9573;50.948;11.600;2022-09-09T03:49:48;13.20;99.90
18882;DHT22;9573;50.948;11.600;2022-09-09T03:52:16;13.40;99.90
18882;DHT22;9573;50.948;11.600;2022-09-09T03:54:44;13.60;99.90
18882;DHT22;9573;50.948;11.600;2022-09-09T03:57:11;13.80;99.90
18882;DHT22;9573;50.948;11.600;2022-09-09T03:59:39;14.00;99.90
18882;DHT22;9573;50.948;11.600;2022-09-09T04:02:06;14.10;99.90
18882;DHT22;9573;50.948;11.600;2022-09-09T04:04:33;14.20;99.90
18882;DHT22;9573;50.948;11.600;2022-09-09T04:07:00;14.30;99.90
18882;DHT22;9573;50.948;11.600;2022-09-09T04:09:29;14.50;99.90
18882;DHT22;9573;50.948;11.600;2022-09-09T04:11:56;14.50;99.90
18882;DHT22;9573;50.948;11.600;2022-09-09T04:14:23;14.60;99.90
18882;DHT22;9573;50.948;11.600;2022-09-09T04:16:54;14.60;99.90
18882;DHT22;9573;50.948;11.600;2022-09-09T04:19:23;14.60;99.90
18882;DHT22;9573;50.948;11.600;2022-09-09T04:21:50;14.60;99.90
18882;DHT22;9573;50.948;11.600;2022-09-09T04:24:18;14.70;99.90
18882;DHT22;9573;50.948;11.600;2022-09-09T04:26:47;14.70;99.90
18882;DHT22;9573;50.948;11.600;2022-09-09T04:29:14;14.70;99.90
18882;DHT22;9573;50.948;11.600;2022-09-09T04:31:41;14.80;99.90
18882;DHT22;9573;50.948;11.600;2022-09-09T04:34:08;14.80;99.90
18882;DHT22;9573;50.948;11.600;2022-09-09T04:36:36;14.80;99.90
18882;DHT22;9573;50.948;11.600;2022-09-09T04:39:03;14.90;99.90
18882;DHT22;9573;50.948;11.600;2022-09-09T04:41:30;14.90;99.90
18882;DHT22;9573;50.948;11.600;2022-09-09T04:43:59;15.00;99.90
18882;DHT22;9573;50.948;11.600;2022-09-09T04:46:28;15.00;99.90
18882;DHT22;9573;50.948;11.600;2022-09-09T04:48:55;15.10;99.90
18882;DHT22;9573;50.948;11.600;2022-09-09T04:51:22;15.10;99.90
18882;DHT22;9573;50.948;11.600;2022-09-09T04:53:49;15.10;99.90
18882;DHT22;9573;50.948;11.600;2022-09-09T04:56:17;15.10;99.90
18882;DHT22;9573;50.948;11.600;2022-09-09T04:58:44;15.00;99.90
18882;DHT22;9573;50.948;11.600;2022-09-09T05:01:14;15.00;99.90
18882;DHT22;9573;50.948;11.600;2022-09-09T05:03:43;15.00;99.90
18882;DHT22;9573;50.948;11.600;2022-09-09T05:08:42;15.00;99.90
18882;DHT22;9573;50.948;11.600;2022-09-09T05:11:14;15.00;99.90
18882;DHT22;9573;50.948;11.600;2022-09-09T05:13:43;15.00;99.90
18882;DHT22;9573;50.948;11.600;2022-09-09T05:16:10;15.00;99.90
18882;DHT22;9573;50.948;11.600;2022-09-09T05:18:39;15.00;99.90
18882;DHT22;9573;50.948;11.600;2022-09-09T05:21:08;15.10;99.90
18882;DHT22;9573;50.948;11.600;2022-09-09T05:23:35;15.20;99.90
18882;DHT22;9573;50.948;11.600;2022-09-09T05:26:04;15.20;99.90
18882;DHT22;9573;50.948;11.600;2022-09-09T05:28:34;15.30;99.90
18882;DHT22;9573;50.948;11.600;2022-09-09T05:31:03;15.30;99.90
18882;DHT22;9573;50.948;11.600;2022-09-09T05:33:35;15.40;99.90
18882;DHT22;9573;50.948;11.600;2022-09-09T05:36:04;15.50;99.90
18882;DHT22;9573;50.948;11.600;2022-09-09T05:38:34;15.50;99.90
18882;DHT22;9573;50.948;11.600;2022-09-09T05:41:02;15.50;99.90
18882;DHT22;9573;50.948;11.600;2022-09-09T05:43:30;15.60;99.90
18882;DHT22;9573;50.948;11.600;2022-09-09T05:46:02;15.70;99.90
18882;DHT22;9573;50.948;11.600;2022-09-09T05:48:32;15.70;99.90
18882;DHT22;9573;50.948;11.600;2022-09-09T05:51:01;15.80;99.90
18882;DHT22;9573;50.948;11.600;2022-09-09T05:53:29;15.80;99.90
18882;DHT22;9573;50.948;11.600;2022-09-09T05:56:00;15.90;99.90
18882;DHT22;9573;50.948;11.600;2022-09-09T05:58:29;16.00;99.90
18882;DHT22;9573;50.948;11.600;2022-09-09T06:01:04;16.00;99.90
18882;DHT22;9573;50.948;11.600;2022-09-09T06:03:34;16.10;99.90
18882;DHT22;9573;50.948;11.600;2022-09-09T06:06:03;16.10;99.90
18882;DHT22;9573;50.948;11.600;2022-09-09T06:08:31;16.20;99.90
18882;DHT22;9573;50.948;11.600;2022-09-09T06:11:03;16.30;99.90
18882;DHT22;9573;50.948;11.600;2022-09-09T06:13:31;16.30;99.90
18882;DHT22;9573;50.948;11.600;2022-09-09T06:15:59;16.40;99.90
18882;DHT22;9573;50.948;11.600;2022-09-09T06:18:26;16.50;99.90
18882;DHT22;9573;50.948;11.600;2022-09-09T06:20:57;16.60;99.90
18882;DHT22;9573;50.948;11.600;2022-09-09T06:23:26;16.60;99.90
18882;DHT22;9573;50.948;11.600;2022-09-09T06:26:03;16.80;99.90
18882;DHT22;9573;50.948;11.600;2022-09-09T06:28:32;17.10;99.90
18882;DHT22;9573;50.948;11.600;2022-09-09T06:30:59;17.30;99.90
18882;DHT22;9573;50.948;11.600;2022-09-09T06:33:30;17.40;99.90
18882;DHT22;9573;50.948;11.600;2022-09-09T06:35:59;17.80;99.90
18882;DHT22;9573;50.948;11.600;2022-09-09T06:38:26;18.80;99.90
18882;DHT22;9573;50.948;11.600;2022-09-09T06:40:55;20.20;99.90
18882;DHT22;9573;50.948;11.600;2022-09-09T06:43:24;20.50;99.90
18882;DHT22;9573;50.948;11.600;2022-09-09T06:45:57;20.70;99.90
18882;DHT22;9573;50.948;11.600;2022-09-09T06:48:26;21.50;99.90
18882;DHT22;9573;50.948;11.600;2022-09-09T06:51:02;22.10;99.90
18882;DHT22;9573;50.948;11.600;2022-09-09T06:53:30;21.80;99.90
18882;DHT22;9573;50.948;11.600;2022-09-09T06:55:59;21.50;99.90
18882;DHT22;9573;50.948;11.600;2022-09-09T06:58:26;21.10;99.90
18882;DHT22;9573;50.948;11.600;2022-09-09T07:01:02;20.70;99.90
18882;DHT22;9573;50.948;11.600;2022-09-09T07:03:29;20.30;99.90
18882;DHT22;9573;50.948;11.600;2022-09-09T07:05:57;20.00;99.90
18882;DHT22;9573;50.948;11.600;2022-09-09T07:08:26;19.80;99.90
18882;DHT22;9573;50.948;11.600;2022-09-09T07:10:53;19.70;99.90
18882;DHT22;9573;50.948;11.600;2022-09-09T07:13:24;19.60;99.90
18882;DHT22;9573;50.948;11.600;2022-09-09T07:15:51;19.60;99.90
18882;DHT22;9573;50.948;11.600;2022-09-09T07:18:19;19.60;99.90
18882;DHT22;9573;50.948;11.600;2022-09-09T07:20:53;19.60;99.90
18882;DHT22;9573;50.948;11.600;2022-09-09T07:23:21;19.90;99.90
18882;DHT22;9573;50.948;11.600;2022-09-09T07:25:50;20.30;99.90
18882;DHT22;9573;50.948;11.600;2022-09-09T07:28:18;21.20;99.90
18882;DHT22;9573;50.948;11.600;2022-09-09T07:30:53;24.90;99.90
18882;DHT22;9573;50.948;11.600;2022-09-09T07:33:21;30.00;99.90
18882;DHT22;9573;50.948;11.600;2022-09-09T07:35:48;32.40;99.90
18882;DHT22;9573;50.948;11.600;2022-09-09T07:38:16;30.90;94.80
18882;DHT22;9573;50.948;11.600;2022-09-09T07:40:43;29.40;97.60
18882;DHT22;9573;50.948;11.600;2022-09-09T07:43:11;29.70;97.20
18882;DHT22;9573;50.948;11.600;2022-09-09T07:45:39;29.70;96.40
18882;DHT22;9573;50.948;11.600;2022-09-09T07:48:08;28.80;96.30
18882;DHT22;9573;50.948;11.600;2022-09-09T07:50:36;28.00;97.30
18882;DHT22;9573;50.948;11.600;2022-09-09T07:53:05;27.10;98.40
18882;DHT22;9573;50.948;11.600;2022-09-09T07:55:32;26.20;99.60
18882;DHT22;9573;50.948;11.600;2022-09-09T07:57:59;25.30;99.90
18882;DHT22;9573;50.948;11.600;2022-09-09T08:00:27;24.60;99.90
18882;DHT22;9573;50.948;11.600;2022-09-09T08:02:54;24.10;99.90
18882;DHT22;9573;50.948;11.600;2022-09-09T08:05:21;23.70;99.90
18882;DHT22;9573;50.948;11.600;2022-09-09T08:07:49;23.60;99.90
18882;DHT22;9573;50.948;11.600;2022-09-09T08:10:16;23.80;99.90
18882;DHT22;9573;50.948;11.600;2022-09-09T08:12:44;23.90;99.90
18882;DHT22;9573;50.948;11.600;2022-09-09T08:15:11;23.80;99.90
18882;DHT22;9573;50.948;11.600;2022-09-09T08:17:40;23.90;99.90
18882;DHT22;9573;50.948;11.600;2022-09-09T08:20:09;24.80;99.90
18882;DHT22;9573;50.948;11.600;2022-09-09T08:22:36;28.60;99.90
18882;DHT22;9573;50.948;11.600;2022-09-09T08:25:05;32.70;93.80
18882;DHT22;9573;50.948;11.600;2022-09-09T08:27:34;35.50;82.50
18882;DHT22;9573;50.948;11.600;2022-09-09T08:30:01;37.30;72.30
18882;DHT22;9573;50.948;11.600;2022-09-09T08:32:28;38.60;64.70
18882;DHT22;9573;50.948;11.600;2022-09-09T08:34:57;38.90;61.10
18882;DHT22;9573;50.948;11.600;2022-09-09T08:37:24;39.50;58.60
18882;DHT22;9573;50.948;11.600;2022-09-09T08:39:51;40.40;57.00
18882;DHT22;9573;50.948;11.600;2022-09-09T08:42:35;41.20;54.30
18882;DHT22;9573;50.948;11.600;2022-09-09T08:45:15;41.10;52.90
18882;DHT22;9573;50.948;11.600;2022-09-09T08:47:58;39.80;53.10
18882;DHT22;9573;50.948;11.600;2022-09-09T08:50:35;38.00;56.60
18882;DHT22;9573;50.948;11.600;2022-09-09T08:53:08;37.40;57.00
18882;DHT22;9573;50.948;11.600;2022-09-09T08:55:42;38.20;56.10
18882;DHT22;9573;50.948;11.600;2022-09-09T08:58:13;39.10;55.30
18882;DHT22;9573;50.948;11.600;2022-09-09T09:00:54;39.60;54.10
18882;DHT22;9573;50.948;11.600;2022-09-09T09:03:35;39.70;53.20
18882;DHT22;9573;50.948;11.600;2022-09-09T09:06:18;39.90;52.40
18882;DHT22;9573;50.948;11.600;2022-09-09T09:08:59;40.10;51.70
18882;DHT22;9573;50.948;11.600;2022-09-09T09:11:35;40.10;51.00
18882;DHT22;9573;50.948;11.600;2022-09-09T09:14:07;40.40;51.10
18882;DHT22;9573;50.948;11.600;2022-09-09T09:16:40;39.90;51.70
18882;DHT22;9573;50.948;11.600;2022-09-09T09:19:15;39.60;51.30
18882;DHT22;9573;50.948;11.600;2022-09-09T09:21:48;38.90;52.90
18882;DHT22;9573;50.948;11.600;2022-09-09T09:24:20;37.40;54.20
18882;DHT22;9573;50.948;11.600;2022-09-09T09:26:52;35.20;57.20
18882;DHT22;9573;50.948;11.600;2022-09-09T09:29:20;33.20;60.70
18882;DHT22;9573;50.948;11.600;2022-09-09T09:31:52;32.00;63.10
18882;DHT22;9573;50.948;11.600;2022-09-09T09:34:21;32.90;62.10
18882;DHT22;9573;50.948;11.600;2022-09-09T09:36:54;35.30;57.50
18882;DHT22;9573;50.948;11.600;2022-09-09T09:39:24;36.30;56.90
18882;DHT22;9573;50.948;11.600;2022-09-09T09:41:53;36.40;55.70
18882;DHT22;9573;50.948;11.600;2022-09-09T09:44:23;35.60;56.10
18882;DHT22;9573;50.948;11.600;2022-09-09T09:46:52;34.20;57.90
18882;DHT22;9573;50.948;11.600;2022-09-09T09:49:19;33.00;59.10
18882;DHT22;9573;50.948;11.600;2022-09-09T09:51:47;31.80;61.70
18882;DHT22;9573;50.948;11.600;2022-09-09T09:54:20;31.20;63.40
18882;DHT22;9573;50.948;11.600;2022-09-09T09:56:49;30.60;65.10
18882;DHT22;9573;50.948;11.600;2022-09-09T09:59:21;29.90;66.70
18882;DHT22;9573;50.948;11.600;2022-09-09T10:01:49;29.30;68.70
18882;DHT22;9573;50.948;11.600;2022-09-09T10:04:19;29.10;69.70
18882;DHT22;9573;50.948;11.600;2022-09-09T10:06:50;28.40;70.10
18882;DHT22;9573;50.948;11.600;2022-09-09T10:09:26;28.10;71.00
18882;DHT22;9573;50.948;11.600;2022-09-09T10:12:04;28.10;71.40
18882;DHT22;9573;50.948;11.600;2022-09-09T10:14:38;29.70;69.70
18882;DHT22;9573;50.948;11.600;2022-09-09T10:17:19;31.70;65.00
18882;DHT22;9573;50.948;11.600;2022-09-09T10:20:04;32.40;63.30
18882;DHT22;9573;50.948;11.600;2022-09-09T10:22:45;32.10;64.40
18882;DHT22;9573;50.948;11.600;2022-09-09T10:25:31;31.20;62.90
18882;DHT22;9573;50.948;11.600;2022-09-09T10:28:33;30.60;63.40
18882;DHT22;9573;50.948;11.600;2022-09-09T10:31:18;29.60;66.50
18882;DHT22;9573;50.948;11.600;2022-09-09T10:33:51;28.80;68.30
18882;DHT22;9573;50.948;11.600;2022-09-09T10:36:27;28.20;69.40
18882;DHT22;9573;50.948;11.600;2022-09-09T10:38:59;27.70;71.30
18882;DHT22;9573;50.948;11.600;2022-09-09T10:41:43;28.60;70.10
18882;DHT22;9573;50.948;11.600;2022-09-09T10:44:30;31.00;65.50
18882;DHT22;9573;50.948;11.600;2022-09-09T10:50:16;31.30;64.50
18882;DHT22;9573;50.948;11.600;2022-09-09T10:52:55;31.00;65.70
18882;DHT22;9573;50.948;11.600;2022-09-09T10:55:33;31.30;64.20
18882;DHT22;9573;50.948;11.600;2022-09-09T10:58:05;30.90;64.90
18882;DHT22;9573;50.948;11.600;2022-09-09T11:00:39;30.10;66.40
18882;DHT22;9573;50.948;11.600;2022-09-09T11:03:14;29.50;68.80
18882;DHT22;9573;50.948;11.600;2022-09-09T11:05:47;29.40;70.50
18882;DHT22;9573;50.948;11.600;2022-09-09T11:08:19;30.70;69.30
18882;DHT22;9573;50.948;11.600;2022-09-09T11:10:52;32.50;64.00
18882;DHT22;9573;50.948;11.600;2022-09-09T11:13:26;34.00;59.20
18882;DHT22;9573;50.948;11.600;2022-09-09T11:16:11;33.60;60.00
18882;DHT22;9573;50.948;11.600;2022-09-09T11:18:44;32.20;60.80
18882;DHT22;9573;50.948;11.600;2022-09-09T11:21:18;30.80;64.10
18882;DHT22;9573;50.948;11.600;2022-09-09T11:23:52;30.40;65.80
18882;DHT22;9573;50.948;11.600;2022-09-09T11:26:29;31.30;65.00
18882;DHT22;9573;50.948;11.600;2022-09-09T11:29:14;31.60;63.20
18882;DHT22;9573;50.948;11.600;2022-09-09T11:32:20;32.40;61.10
18882;DHT22;9573;50.948;11.600;2022-09-09T11:35:09;33.20;59.60
18882;DHT22;9573;50.948;11.600;2022-09-09T11:38:02;33.50;57.60
18882;DHT22;9573;50.948;11.600;2022-09-09T11:40:42;33.70;57.00
18882;DHT22;9573;50.948;11.600;2022-09-09T11:43:12;33.50;57.80
18882;DHT22;9573;50.948;11.600;2022-09-09T11:45:43;33.80;58.00
18882;DHT22;9573;50.948;11.600;2022-09-09T11:48:26;33.80;57.20
18882;DHT22;9573;50.948;11.600;2022-09-09T11:51:05;34.20;57.40
18882;DHT22;9573;50.948;11.600;2022-09-09T11:53:35;34.70;56.70
18882;DHT22;9573;50.948;11.600;2022-09-09T11:56:24;34.40;56.30
18882;DHT22;9573;50.948;11.600;2022-09-09T11:59:01;33.80;56.50
18882;DHT22;9573;50.948;11.600;2022-09-09T12:01:39;32.30;59.10
18882;DHT22;9573;50.948;11.600;2022-09-09T12:04:30;31.00;61.30
18882;DHT22;9573;50.948;11.600;2022-09-09T12:07:02;29.80;64.30
18882;DHT22;9573;50.948;11.600;2022-09-09T12:09:41;29.00;67.10
18882;DHT22;9573;50.948;11.600;2022-09-09T12:12:25;28.50;69.30
18882;DHT22;9573;50.948;11.600;2022-09-09T12:14:57;27.80;70.50
18882;DHT22;9573;50.948;11.600;2022-09-09T12:17:45;27.30;70.50
18882;DHT22;9573;50.948;11.600;2022-09-09T12:20:16;26.80;70.40
18882;DHT22;9573;50.948;11.600;2022-09-09T12:25:59;26.20;73.60
18882;DHT22;9573;50.948;11.600;2022-09-09T12:28:45;26.10;73.30
18882;DHT22;9573;50.948;11.600;2022-09-09T12:31:25;26.10;74.60
18882;DHT22;9573;50.948;11.600;2022-09-09T12:34:06;26.30;69.80
18882;DHT22;9573;50.948;11.600;2022-09-09T12:36:38;26.50;68.10
18882;DHT22;9573;50.948;11.600;2022-09-09T12:39:16;26.50;66.80
18882;DHT22;9573;50.948;11.600;2022-09-09T12:41:51;26.30;66.10
18882;DHT22;9573;50.948;11.600;2022-09-09T12:44:23;26.30;67.90
18882;DHT22;9573;50.948;11.600;2022-09-09T12:46:51;26.10;68.90
18882;DHT22;9573;50.948;11.600;2022-09-09T12:49:28;25.90;70.20
18882;DHT22;9573;50.948;11.600;2022-09-09T12:52:01;25.70;70.80
18882;DHT22;9573;50.948;11.600;2022-09-09T12:54:31;25.50;72.20
18882;DHT22;9573;50.948;11.600;2022-09-09T12:56:59;25.40;72.90
18882;DHT22;9573;50.948;11.600;2022-09-09T12:59:35;25.40;73.60
18882;DHT22;9573;50.948;11.600;2022-09-09T13:02:16;25.70;73.50
18882;DHT22;9573;50.948;11.600;2022-09-09T13:04:47;25.80;73.00
18882;DHT22;9573;50.948;11.600;2022-09-09T13:07:16;25.80;73.70
18882;DHT22;9573;50.948;11.600;2022-09-09T13:09:44;25.70;73.80
18882;DHT22;9573;50.948;11.600;2022-09-09T13:12:15;25.80;74.20
18882;DHT22;9573;50.948;11.600;2022-09-09T13:14:45;25.60;75.10
18882;DHT22;9573;50.948;11.600;2022-09-09T13:17:20;25.40;76.20
18882;DHT22;9573;50.948;11.600;2022-09-09T13:19:51;25.20;76.90
18882;DHT22;9573;50.948;11.600;2022-09-09T13:22:22;25.00;77.60
18882;DHT22;9573;50.948;11.600;2022-09-09T13:25:02;24.90;79.40
18882;DHT22;9573;50.948;11.600;2022-09-09T13:27:33;24.90;79.50
18882;DHT22;9573;50.948;11.600;2022-09-09T13:30:20;24.90;80.30
18882;DHT22;9573;50.948;11.600;2022-09-09T13:33:03;24.70;80.20
18882;DHT22;9573;50.948;11.600;2022-09-09T13:35:35;24.50;80.40
18882;DHT22;9573;50.948;11.600;2022-09-09T13:38:13;24.30;80.10
18882;DHT22;9573;50.948;11.600;2022-09-09T13:40:52;24.20;80.50
18882;DHT22;9573;50.948;11.600;2022-09-09T13:43:23;24.10;81.00
18882;DHT22;9573;50.948;11.600;2022-09-09T13:45:55;24.10;80.90
18882;DHT22;9573;50.948;11.600;2022-09-09T13:48:24;23.90;81.10
18882;DHT22;9573;50.948;11.600;2022-09-09T13:50:58;23.80;82.20
18882;DHT22;9573;50.948;11.600;2022-09-09T13:53:27;23.80;82.30
18882;DHT22;9573;50.948;11.600;2022-09-09T13:55:59;23.70;82.40
18882;DHT22;9573;50.948;11.600;2022-09-09T13:58:26;23.80;83.10
18882;DHT22;9573;50.948;11.600;2022-09-09T14:00:53;23.90;82.80
18882;DHT22;9573;50.948;11.600;2022-09-09T14:03:21;24.20;82.10
18882;DHT22;9573;50.948;11.600;2022-09-09T14:05:48;24.50;82.00
18882;DHT22;9573;50.948;11.600;2022-09-09T14:08:22;24.50;81.00
18882;DHT22;9573;50.948;11.600;2022-09-09T14:10:51;24.50;80.90
18882;DHT22;9573;50.948;11.600;2022-09-09T14:13:19;24.50;81.80
18882;DHT22;9573;50.948;11.600;2022-09-09T14:15:48;24.70;81.20
18882;DHT22;9573;50.948;11.600;2022-09-09T14:18:16;24.70;81.20
18882;DHT22;9573;50.948;11.600;2022-09-09T14:20:44;24.60;81.80
18882;DHT22;9573;50.948;11.600;2022-09-09T14:23:12;24.50;81.70
18882;DHT22;9573;50.948;11.600;2022-09-09T14:25:43;24.40;80.30
18882;DHT22;9573;50.948;11.600;2022-09-09T14:28:11;24.30;79.80
18882;DHT22;9573;50.948;11.600;2022-09-09T14:30:40;24.10;80.20
18882;DHT22;9573;50.948;11.600;2022-09-09T14:33:12;24.10;82.10
18882;DHT22;9573;50.948;11.600;2022-09-09T14:35:40;24.00;79.80
18882;DHT22;9573;50.948;11.600;2022-09-09T14:38:08;23.80;79.30
18882;DHT22;9573;50.948;11.600;2022-09-09T14:40:35;23.80;79.70
18882;DHT22;9573;50.948;11.600;2022-09-09T14:43:05;23.60;79.80
18882;DHT22;9573;50.948;11.600;2022-09-09T14:45:32;23.50;80.50
18882;DHT22;9573;50.948;11.600;2022-09-09T14:48:03;23.60;81.30
18882;DHT22;9573;50.948;11.600;2022-09-09T14:50:30;23.50;80.40
18882;DHT22;9573;50.948;11.600;2022-09-09T14:52:58;23.50;81.90
18882;DHT22;9573;50.948;11.600;2022-09-09T14:55:25;23.50;81.50
18882;DHT22;9573;50.948;11.600;2022-09-09T14:57:54;23.30;82.40
18882;DHT22;9573;50.948;11.600;2022-09-09T15:00:22;23.30;82.90
18882;DHT22;9573;50.948;11.600;2022-09-09T15:02:52;23.40;82.90
18882;DHT22;9573;50.948;11.600;2022-09-09T15:05:19;23.30;82.00
18882;DHT22;9573;50.948;11.600;2022-09-09T15:07:46;23.30;82.90
18882;DHT22;9573;50.948;11.600;2022-09-09T15:10:14;23.30;84.00
18882;DHT22;9573;50.948;11.600;2022-09-09T15:12:42;23.20;84.40
18882;DHT22;9573;50.948;11.600;2022-09-09T15:15:10;23.10;85.40
18882;DHT22;9573;50.948;11.600;2022-09-09T15:17:39;23.10;86.00
18882;DHT22;9573;50.948;11.600;2022-09-09T15:20:07;23.10;85.40
18882;DHT22;9573;50.948;11.600;2022-09-09T15:22:35;23.10;86.20
18882;DHT22;9573;50.948;11.600;2022-09-09T15:25:04;23.00;86.10
18882;DHT22;9573;50.948;11.600;2022-09-09T15:27:33;23.00;86.60
18882;DHT22;9573;50.948;11.600;2022-09-09T15:30:00;23.00;86.50
18882;DHT22;9573;50.948;11.600;2022-09-09T15:32:28;23.00;85.70
18882;DHT22;9573;50.948;11.600;2022-09-09T15:34:57;22.80;87.20
18882;DHT22;9573;50.948;11.600;2022-09-09T15:37:24;22.80;87.60
18882;DHT22;9573;50.948;11.600;2022-09-09T15:39:51;22.80;88.30
18882;DHT22;9573;50.948;11.600;2022-09-09T15:42:18;22.80;88.60
18882;DHT22;9573;50.948;11.600;2022-09-09T15:44:45;22.80;89.20
18882;DHT22;9573;50.948;11.600;2022-09-09T15:47:12;22.70;89.80
18882;DHT22;9573;50.948;11.600;2022-09-09T15:49:40;22.60;90.30
18882;DHT22;9573;50.948;11.600;2022-09-09T15:52:10;22.60;90.90
18882;DHT22;9573;50.948;11.600;2022-09-09T15:54:37;22.60;90.70
18882;DHT22;9573;50.948;11.600;2022-09-09T15:57:07;22.60;91.00
18882;DHT22;9573;50.948;11.600;2022-09-09T15:59:34;22.50;91.20
18882;DHT22;9573;50.948;11.600;2022-09-09T16:02:01;22.40;91.50
18882;DHT22;9573;50.948;11.600;2022-09-09T16:04:29;22.40;91.50
18882;DHT22;9573;50.948;11.600;2022-09-09T16:06:59;22.30;91.50
18882;DHT22;9573;50.948;11.600;2022-09-09T16:09:29;22.10;91.50